Nearby METAR Reports

 

KTTN - Trenton, New Jersey, USA
Distance from station: WNW 11mi, 17km
Updated: Mon, 28-Sep-2020 9:53am EDT
Mostly cloudy
Mostly cloudy
 Wind from SSE
Wind: SSE 8 mph , 13 km/h
Temperature: 70°F , 21°C
Dew Point: 68°F , 20°C
Humidity: 94%
Barometer: 29.92 inHg , 1013.2 hPa
Clouds: Mostly cloudy
Visibility: 10 miles , 16 km
Cloud details: Mostly cloudy 900 ft
2020/09/28 13:53 KTTN 281353Z 15007KT 10SM BKN009 21/20 A2992 RMK AO2 CIG 008V012 SLP125 T02110200
KWRI - Wrightst/Mcguire, New Jersey, USA
Distance from station: SSE 14mi, 22km
Updated: Mon, 28-Sep-2020 8:56am EDT
Mostly cloudy
Mostly cloudy
 Wind from S
Wind: S 3 mph , 6 km/h
Temperature: 70°F , 21°C
Dew Point: 66°F , 19°C
Humidity: 88%
Barometer: 29.91 inHg , 1012.9 hPa
Clouds: Mostly cloudy
Visibility: 10 miles , 16 km
Cloud details: Mostly cloudy 4000 ft
2020/09/28 12:56 KWRI 281256Z 18003KT 10SM BKN040 21/19 A2991 RMK AO2A SLPNO WND DATA ESTMD ALSTG ESTMD $
 
KNEL - Lakehurst Nas, New Jersey, USA
Distance from station: SE 21mi, 34km
Updated: Mon, 28-Sep-2020 10:00am EDT
Clear
Clear
 Wind from SSW
Wind: SSW 12 mph , 19 km/h
Temperature: 77°F , 25°C
Dew Point: 66°F , 19°C
Humidity: 69%
Barometer: 29.92 inHg , 1013.2 hPa
Clouds: Clear
Visibility: 10 miles , 16 km
2020/09/28 14:00 KNEL 281400Z 20010KT 10SM CLR 25/19 A2992 RMK AO2 SLPNO T02500194 $
KPNE - Philadelphia/Ne, Pennsylvania, USA
Distance from station: WSW 22mi, 35km
Updated: Mon, 28-Sep-2020 9:54am EDT
Overcast
Overcast
 Wind from SSW
Wind: SSW 8 mph , 13 km/h
Temperature: 72°F , 22°C
Dew Point: 66°F , 19°C
Humidity: 83%
Barometer: 29.94 inHg , 1013.9 hPa
Clouds: Overcast
Visibility: 10 miles , 16 km
Cloud details: Overcast 1000 ft
2020/09/28 13:54 KPNE 281354Z 21007KT 10SM OVC010 22/19 A2994 RMK AO2 SLP137 T02220194
 
KVAY - Mount Holly, New Jersey, USA
Distance from station: SSW 22mi, 35km
Updated: Mon, 28-Sep-2020 9:54am EDT
Partly cloudy
Partly cloudy
 Wind from varies
Wind: varies 6 mph , 9 km/h
Temperature: 73°F , 23°C
Dew Point: 68°F , 20°C
Humidity: 83%
Barometer: 29.93 inHg , 1013.5 hPa
Clouds: Partly cloudy
Visibility: 10 miles , 16 km
Cloud details: Partly cloudy 900 ft
2020/09/28 13:54 KVAY 281354Z AUTO VRB05KT 10SM SCT009 23/20 A2993 RMK AO2 SLP134 T02280200
KMJX - Toms River, New Jersey, USA
Distance from station: SE 26mi, 42km
Updated: Mon, 28-Sep-2020 9:56am EDT
Few Clouds
Few Clouds
 Wind from S
Wind: S 7 mph , 11 km/h
Temperature: 75°F , 24°C
Dew Point: 66°F , 19°C
Humidity: 74%
Barometer: 29.95 inHg , 1014.2 hPa
Clouds: Few Clouds
Visibility: 10 miles , 16 km
Cloud details: Few Clouds 200 ft
2020/09/28 13:56 KMJX 281356Z AUTO 17006KT 10SM FEW002 24/19 A2995 RMK AO2 SLP144 T02390189
 
KDYL - Doylestown, Pennsylvania, USA
Distance from station: WNW 27mi, 43km
Updated: Mon, 28-Sep-2020 9:54am EDT
Overcast
Overcast
 Wind from calm
Wind: Calm
Temperature: 70°F , 21°C
Dew Point: 66°F , 19°C
Humidity: 88%
Barometer: 29.92 inHg , 1013.2 hPa
Clouds: Overcast
Visibility: 10 miles , 16 km
Cloud details: Overcast 900 ft
2020/09/28 13:54 KDYL 281354Z AUTO 00000KT 10SM OVC009 21/19 A2992 RMK AO2 CIG 006V013 SLP125 T02110189
KBLM - Belmar/Farmdale, New Jersey, USA
Distance from station: E 28mi, 45km
Updated: Mon, 28-Sep-2020 9:56am EDT
Clear
Clear
 Wind from S
Wind: S 8 mph , 13 km/h
Temperature: 73°F , 23°C
Dew Point: 72°F , 22°C
Humidity: 94%
Barometer: 29.96 inHg , 1014.6 hPa
Clouds: Clear
Visibility: 10 miles , 16 km
2020/09/28 13:56 KBLM 281356Z AUTO 19007KT 10SM CLR 23/22 A2996 RMK AO2 SLP144 T02330217
 
KSMQ - Somerville, New Jersey, USA
Distance from station: N 28mi, 45km
Updated: Mon, 28-Sep-2020 9:53am EDT
Mostly cloudy
Mostly cloudy
 Wind from S
Wind: S 5 mph , 7 km/h
Temperature: 72°F , 22°C
Dew Point: 68°F , 20°C
Humidity: 88%
Barometer: 29.91 inHg , 1012.9 hPa
Clouds: Mostly cloudy
Visibility: 10 miles , 16 km
Cloud details: Partly cloudy 1200 ft
Mostly cloudy 1800 ft
2020/09/28 13:53 KSMQ 281353Z AUTO 17004KT 10SM SCT012 BKN018 22/20 A2991 RMK AO2 SLP126 T02170200
KLOM - Philly Wings F, Pennsylvania, USA
Distance from station: W 34mi, 54km
Updated: Mon, 28-Sep-2020 9:55am EDT
Overcast
Overcast
 Wind from S
Wind: S 8 mph , 13 km/h
Temperature: 70°F , 21°C
Dew Point: 66°F , 19°C
Humidity: 88%
Barometer: 29.93 inHg , 1013.5 hPa
Clouds: Overcast
Visibility: 10 miles , 16 km
Cloud details: Overcast 800 ft
2020/09/28 13:55 KLOM 281355Z AUTO 17007KT 10SM OVC008 21/19 A2993 RMK AO2 P0001 T02060195
 
KLDJ - Linden, New Jersey, USA
Distance from station: NE 35mi, 56km
Updated: Mon, 28-Sep-2020 9:55am EDT
Mostly cloudy
Mostly cloudy
 Wind from SW
Wind: SW 3 mph , 6 km/h
Temperature: 72°F , 22°C
Dew Point: 66°F , 19°C
Humidity: 83%
Barometer: 29.93 inHg , 1013.5 hPa
Clouds: Mostly cloudy
Visibility: 10 miles , 16 km
Cloud details: Mostly cloudy 1600 ft
Mostly cloudy 5000 ft
2020/09/28 13:55 KLDJ 281355Z AUTO 22003KT 10SM BKN016 BKN050 22/19 A2993 RMK AO2 T02180190
KCKZ - Perkasie, Pennsylvania, USA
Distance from station: WNW 36mi, 58km
Updated: Mon, 28-Sep-2020 9:55am EDT
Overcast
Overcast
 Wind from calm
Wind: Calm
Temperature: 68°F , 20°C
Dew Point: 68°F , 20°C
Humidity: 100%
Barometer: 29.93 inHg , 1013.5 hPa
Clouds: Overcast
Visibility: 10 miles , 16 km
Cloud details: Mostly cloudy 600 ft
Overcast 1100 ft
2020/09/28 13:55 KCKZ 281355Z AUTO 00000KT 10SM BKN006 OVC011 20/20 A2993 RMK AO2
 
KPHL - Philadelphia, Pennsylvania, USA
Distance from station: SW 40mi, 64km
Updated: Mon, 28-Sep-2020 9:54am EDT
Overcast
Overcast
 Wind from SSW
Wind: SSW 8 mph , 13 km/h
Temperature: 72°F , 22°C
Dew Point: 66°F , 19°C
Humidity: 83%
Barometer: 29.93 inHg , 1013.5 hPa
Clouds: Overcast
Visibility: 10 miles , 16 km
Cloud details: Overcast 1000 ft
2020/09/28 13:54 KPHL 281354Z 20007KT 10SM OVC010 22/19 A2993 RMK AO2 SLP134 T02170194
KEWR - Newark, New Jersey, USA
Distance from station: NE 41mi, 66km
Updated: Mon, 28-Sep-2020 9:51am EDT
Mostly cloudy
Mostly cloudy
 Wind from S
Wind: S 8 mph , 13 km/h
Temperature: 72°F , 22°C
Dew Point: 66°F , 19°C
Humidity: 83%
Barometer: 29.93 inHg , 1013.5 hPa
Clouds: Mostly cloudy
Visibility: 10 miles , 16 km
Cloud details: Few Clouds 900 ft
Mostly cloudy 1400 ft
Mostly cloudy 5500 ft
Mostly cloudy 25000 ft
2020/09/28 13:51 KEWR 281351Z 18007KT 10SM FEW009 BKN014 BKN055 BKN250 22/19 A2993 RMK AO2 SLP133 BKN015 V SCT T02220194
 
KMMU - Morristown Muni, New Jersey, USA
Distance from station: NNE 41mi, 66km
Updated: Mon, 28-Sep-2020 9:45am EDT
Overcast
Overcast
 Wind from SW
Wind: SW 5 mph , 7 km/h
Temperature: 75°F , 24°C
Dew Point: 73°F , 23°C
Humidity: 94%
Barometer: 29.93 inHg , 1013.5 hPa
Clouds: Overcast
Visibility: 10 miles , 16 km
Cloud details: Mostly cloudy 1200 ft
Overcast 1900 ft
2020/09/28 13:45 KMMU 281345Z 22004KT 10SM BKN012 OVC019 24/23 A2993
KUKT - Quakertown Arp, Pennsylvania, USA
Distance from station: WNW 42mi, 68km
Updated: Mon, 28-Sep-2020 9:55am EDT
Overcast
Overcast
 Wind from SSW
Wind: SSW 6 mph , 9 km/h
Temperature: 68°F , 20°C
Dew Point: 68°F , 20°C
Humidity: 100%
Barometer: 29.93 inHg , 1013.5 hPa
Clouds: Overcast
Visibility: 10 miles , 16 km
Cloud details: Mostly cloudy 700 ft
Overcast 1000 ft
2020/09/28 13:55 KUKT 281355Z AUTO 20005KT 10SM BKN007 OVC010 20/20 A2993 RMK A01
 
KJRB - Manhattan/Dwntwn, New York, USA
Distance from station: NE 47mi, 75km
Updated: Mon, 28-Sep-2020 9:56am EDT
Few Clouds
Few Clouds
 Wind from SW
Wind: SW 5 mph , 7 km/h
Temperature: 72°F , 22°C
Dew Point: 66°F , 19°C
Humidity: 83%
Barometer: 29.94 inHg , 1013.9 hPa
Clouds: Few Clouds
Visibility: 10 miles , 16 km
Cloud details: Few Clouds 1000 ft
2020/09/28 13:56 KJRB 281356Z AUTO 22004KT 10SM FEW010 22/19 A2994 RMK AO2 SLP139 T02170194
KPTW - Pottstown, Pennsylvania, USA
Distance from station: W 48mi, 77km
Updated: Mon, 28-Sep-2020 9:54am EDT
Overcast
Overcast
 Wind from S
Wind: S 3 mph , 6 km/h
Temperature: 68°F , 20°C
Dew Point: 66°F , 19°C
Humidity: 94%
Barometer: 29.94 inHg , 1013.9 hPa
Clouds: Overcast
Visibility: 8 miles , 13 km
Cloud details: Overcast 1100 ft
2020/09/28 13:54 KPTW 281354Z AUTO 19003KT 8SM OVC011 20/19 A2994 RMK AO2 SLP133 T02000189
 
KCDW - Caldwell, New Jersey, USA
Distance from station: NNE 50mi, 80km
Updated: Mon, 28-Sep-2020 9:53am EDT
Overcast
Overcast
 Wind from calm
Wind: Calm
Temperature: 73°F , 23°C
Dew Point: 66°F , 19°C
Humidity: 78%
Barometer: 29.93 inHg , 1013.5 hPa
Clouds: Overcast
Visibility: 10 miles , 16 km
Cloud details: Mostly cloudy 1500 ft
Mostly cloudy 2500 ft
Overcast 5000 ft
2020/09/28 13:53 KCDW 281353Z 00000KT 10SM BKN015 BKN025 OVC050 23/19 A2993 RMK AO2 SLP138 T02280194